sensor_id;sensor_type;location;lat;lon;timestamp;P1;durP1;ratioP1;P2;durP2;ratioP2
15273;SDS011;7738;49.532;11.156;2023-08-31T00:02:05;4.05;;;2.22;;
15273;SDS011;7738;49.532;11.156;2023-08-31T00:04:36;3.65;;;2.10;;
15273;SDS011;7738;49.532;11.156;2023-08-31T00:07:06;3.63;;;2.03;;
15273;SDS011;7738;49.532;11.156;2023-08-31T00:09:36;5.25;;;2.28;;
15273;SDS011;7738;49.532;11.156;2023-08-31T00:12:09;5.85;;;2.40;;
15273;SDS011;7738;49.532;11.156;2023-08-31T00:14:39;4.38;;;2.47;;
15273;SDS011;7738;49.532;11.156;2023-08-31T00:17:09;4.22;;;2.90;;
15273;SDS011;7738;49.532;11.156;2023-08-31T00:19:40;5.65;;;2.78;;
15273;SDS011;7738;49.532;11.156;2023-08-31T00:22:10;4.00;;;2.55;;
15273;SDS011;7738;49.532;11.156;2023-08-31T00:24:40;4.13;;;2.55;;
15273;SDS011;7738;49.532;11.156;2023-08-31T00:27:13;3.72;;;2.35;;
15273;SDS011;7738;49.532;11.156;2023-08-31T00:29:44;5.43;;;2.67;;
15273;SDS011;7738;49.532;11.156;2023-08-31T00:32:16;3.80;;;2.53;;
15273;SDS011;7738;49.532;11.156;2023-08-31T00:34:49;5.38;;;2.92;;
15273;SDS011;7738;49.532;11.156;2023-08-31T00:37:19;5.32;;;2.83;;
15273;SDS011;7738;49.532;11.156;2023-08-31T00:39:50;5.05;;;2.88;;
15273;SDS011;7738;49.532;11.156;2023-08-31T00:42:23;3.38;;;2.58;;
15273;SDS011;7738;49.532;11.156;2023-08-31T00:44:56;3.80;;;2.92;;
15273;SDS011;7738;49.532;11.156;2023-08-31T00:47:26;6.05;;;4.10;;
15273;SDS011;7738;49.532;11.156;2023-08-31T00:49:57;4.53;;;3.45;;
15273;SDS011;7738;49.532;11.156;2023-08-31T00:52:30;3.08;;;2.75;;
15273;SDS011;7738;49.532;11.156;2023-08-31T00:55:02;5.60;;;3.35;;
15273;SDS011;7738;49.532;11.156;2023-08-31T00:57:37;6.18;;;3.13;;
15273;SDS011;7738;49.532;11.156;2023-08-31T01:00:08;5.30;;;3.15;;
15273;SDS011;7738;49.532;11.156;2023-08-31T01:02:43;7.00;;;3.30;;
15273;SDS011;7738;49.532;11.156;2023-08-31T01:05:23;4.38;;;3.50;;
15273;SDS011;7738;49.532;11.156;2023-08-31T01:08:03;6.05;;;3.50;;
15273;SDS011;7738;49.532;11.156;2023-08-31T01:10:43;5.32;;;2.85;;
15273;SDS011;7738;49.532;11.156;2023-08-31T01:13:24;3.85;;;2.75;;
15273;SDS011;7738;49.532;11.156;2023-08-31T01:15:55;8.68;;;2.67;;
15273;SDS011;7738;49.532;11.156;2023-08-31T01:18:30;3.83;;;2.53;;
15273;SDS011;7738;49.532;11.156;2023-08-31T01:21:06;3.70;;;2.15;;
15273;SDS011;7738;49.532;11.156;2023-08-31T01:23:49;4.25;;;2.58;;
15273;SDS011;7738;49.532;11.156;2023-08-31T01:26:21;5.07;;;2.75;;
15273;SDS011;7738;49.532;11.156;2023-08-31T01:28:52;5.40;;;2.47;;
15273;SDS011;7738;49.532;11.156;2023-08-31T01:31:24;4.07;;;2.20;;
15273;SDS011;7738;49.532;11.156;2023-08-31T01:33:55;3.80;;;2.63;;
15273;SDS011;7738;49.532;11.156;2023-08-31T01:36:26;3.53;;;2.90;;
15273;SDS011;7738;49.532;11.156;2023-08-31T01:39:03;3.92;;;2.15;;
15273;SDS011;7738;49.532;11.156;2023-08-31T01:41:36;4.70;;;2.30;;
15273;SDS011;7738;49.532;11.156;2023-08-31T01:44:09;5.85;;;2.65;;
15273;SDS011;7738;49.532;11.156;2023-08-31T01:46:45;5.15;;;2.78;;
15273;SDS011;7738;49.532;11.156;2023-08-31T01:49:16;3.20;;;2.42;;
15273;SDS011;7738;49.532;11.156;2023-08-31T01:51:46;7.80;;;3.03;;
15273;SDS011;7738;49.532;11.156;2023-08-31T01:54:18;3.42;;;2.72;;
15273;SDS011;7738;49.532;11.156;2023-08-31T01:56:49;3.80;;;2.30;;
15273;SDS011;7738;49.532;11.156;2023-08-31T01:59:19;3.25;;;2.22;;
15273;SDS011;7738;49.532;11.156;2023-08-31T02:01:49;3.83;;;2.72;;
15273;SDS011;7738;49.532;11.156;2023-08-31T02:04:19;4.32;;;3.20;;
15273;SDS011;7738;49.532;11.156;2023-08-31T02:06:50;4.40;;;2.72;;
15273;SDS011;7738;49.532;11.156;2023-08-31T02:09:22;3.33;;;2.33;;
15273;SDS011;7738;49.532;11.156;2023-08-31T02:11:53;3.70;;;2.45;;
15273;SDS011;7738;49.532;11.156;2023-08-31T02:14:25;3.67;;;2.55;;
15273;SDS011;7738;49.532;11.156;2023-08-31T02:16:55;3.88;;;2.75;;
15273;SDS011;7738;49.532;11.156;2023-08-31T02:19:25;4.20;;;2.33;;
15273;SDS011;7738;49.532;11.156;2023-08-31T02:21:56;3.58;;;2.67;;
15273;SDS011;7738;49.532;11.156;2023-08-31T02:24:28;2.70;;;2.30;;
15273;SDS011;7738;49.532;11.156;2023-08-31T02:26:58;4.57;;;2.78;;
15273;SDS011;7738;49.532;11.156;2023-08-31T02:29:29;3.85;;;2.38;;
15273;SDS011;7738;49.532;11.156;2023-08-31T02:31:59;4.35;;;2.78;;
15273;SDS011;7738;49.532;11.156;2023-08-31T02:34:29;6.13;;;2.53;;
15273;SDS011;7738;49.532;11.156;2023-08-31T02:36:59;3.03;;;2.13;;
15273;SDS011;7738;49.532;11.156;2023-08-31T02:39:32;4.40;;;2.33;;
15273;SDS011;7738;49.532;11.156;2023-08-31T02:42:02;3.83;;;2.20;;
15273;SDS011;7738;49.532;11.156;2023-08-31T02:44:34;4.93;;;2.42;;
15273;SDS011;7738;49.532;11.156;2023-08-31T02:47:04;5.15;;;2.45;;
15273;SDS011;7738;49.532;11.156;2023-08-31T02:49:35;3.95;;;2.90;;
15273;SDS011;7738;49.532;11.156;2023-08-31T02:52:05;3.97;;;2.17;;
15273;SDS011;7738;49.532;11.156;2023-08-31T02:54:38;3.35;;;2.15;;
15273;SDS011;7738;49.532;11.156;2023-08-31T02:57:08;3.78;;;2.53;;
15273;SDS011;7738;49.532;11.156;2023-08-31T02:59:38;3.45;;;2.33;;
15273;SDS011;7738;49.532;11.156;2023-08-31T03:02:09;2.67;;;1.67;;
15273;SDS011;7738;49.532;11.156;2023-08-31T03:04:41;3.55;;;2.20;;
15273;SDS011;7738;49.532;11.156;2023-08-31T03:07:11;6.43;;;2.72;;
15273;SDS011;7738;49.532;11.156;2023-08-31T03:09:47;4.20;;;2.08;;
15273;SDS011;7738;49.532;11.156;2023-08-31T03:12:18;2.67;;;2.20;;
15273;SDS011;7738;49.532;11.156;2023-08-31T03:14:49;3.50;;;2.55;;
15273;SDS011;7738;49.532;11.156;2023-08-31T03:17:19;4.65;;;2.67;;
15273;SDS011;7738;49.532;11.156;2023-08-31T03:19:49;9.02;;;2.60;;
15273;SDS011;7738;49.532;11.156;2023-08-31T03:22:19;2.72;;;2.30;;
15273;SDS011;7738;49.532;11.156;2023-08-31T03:24:52;3.67;;;2.75;;
15273;SDS011;7738;49.532;11.156;2023-08-31T03:27:22;5.75;;;2.25;;
15273;SDS011;7738;49.532;11.156;2023-08-31T03:29:52;3.22;;;2.20;;
15273;SDS011;7738;49.532;11.156;2023-08-31T03:32:22;7.03;;;2.47;;
15273;SDS011;7738;49.532;11.156;2023-08-31T03:34:53;4.47;;;2.60;;
15273;SDS011;7738;49.532;11.156;2023-08-31T03:37:23;4.35;;;2.50;;
15273;SDS011;7738;49.532;11.156;2023-08-31T03:39:58;3.88;;;2.50;;
15273;SDS011;7738;49.532;11.156;2023-08-31T03:42:29;4.22;;;2.50;;
15273;SDS011;7738;49.532;11.156;2023-08-31T03:45:00;5.07;;;2.70;;
15273;SDS011;7738;49.532;11.156;2023-08-31T03:47:30;3.70;;;2.90;;
15273;SDS011;7738;49.532;11.156;2023-08-31T03:50:01;4.57;;;3.40;;
15273;SDS011;7738;49.532;11.156;2023-08-31T03:52:31;5.07;;;2.90;;
15273;SDS011;7738;49.532;11.156;2023-08-31T03:55:04;6.57;;;3.08;;
15273;SDS011;7738;49.532;11.156;2023-08-31T03:57:35;3.63;;;2.78;;
15273;SDS011;7738;49.532;11.156;2023-08-31T04:00:16;5.03;;;3.38;;
15273;SDS011;7738;49.532;11.156;2023-08-31T04:02:46;4.60;;;3.38;;
15273;SDS011;7738;49.532;11.156;2023-08-31T04:05:21;5.25;;;3.00;;
15273;SDS011;7738;49.532;11.156;2023-08-31T04:07:51;6.05;;;3.28;;
15273;SDS011;7738;49.532;11.156;2023-08-31T04:10:23;4.65;;;3.20;;
15273;SDS011;7738;49.532;11.156;2023-08-31T04:12:56;3.97;;;3.05;;
15273;SDS011;7738;49.532;11.156;2023-08-31T04:15:27;5.45;;;3.35;;
15273;SDS011;7738;49.532;11.156;2023-08-31T04:17:57;4.28;;;3.30;;
15273;SDS011;7738;49.532;11.156;2023-08-31T04:20:28;6.30;;;3.13;;
15273;SDS011;7738;49.532;11.156;2023-08-31T04:22:59;4.57;;;3.15;;
15273;SDS011;7738;49.532;11.156;2023-08-31T04:25:31;2.78;;;2.22;;
15273;SDS011;7738;49.532;11.156;2023-08-31T04:28:02;3.30;;;2.20;;
15273;SDS011;7738;49.532;11.156;2023-08-31T04:30:32;5.28;;;3.05;;
15273;SDS011;7738;49.532;11.156;2023-08-31T04:33:02;4.57;;;2.47;;
15273;SDS011;7738;49.532;11.156;2023-08-31T04:35:33;4.55;;;3.30;;
15273;SDS011;7738;49.532;11.156;2023-08-31T04:38:03;4.50;;;3.10;;
15273;SDS011;7738;49.532;11.156;2023-08-31T04:40:36;7.70;;;3.72;;
15273;SDS011;7738;49.532;11.156;2023-08-31T04:43:06;4.70;;;3.00;;
15273;SDS011;7738;49.532;11.156;2023-08-31T04:45:37;4.50;;;2.92;;
15273;SDS011;7738;49.532;11.156;2023-08-31T04:48:07;5.25;;;3.05;;
15273;SDS011;7738;49.532;11.156;2023-08-31T04:50:38;7.30;;;3.60;;
15273;SDS011;7738;49.532;11.156;2023-08-31T04:53:08;5.38;;;3.00;;
15273;SDS011;7738;49.532;11.156;2023-08-31T04:55:41;5.45;;;3.35;;
15273;SDS011;7738;49.532;11.156;2023-08-31T04:58:11;6.95;;;3.75;;
15273;SDS011;7738;49.532;11.156;2023-08-31T05:00:41;4.57;;;3.42;;
15273;SDS011;7738;49.532;11.156;2023-08-31T05:03:12;4.70;;;2.97;;
15273;SDS011;7738;49.532;11.156;2023-08-31T05:05:42;4.80;;;3.67;;
15273;SDS011;7738;49.532;11.156;2023-08-31T05:08:13;8.15;;;3.63;;
15273;SDS011;7738;49.532;11.156;2023-08-31T05:10:47;10.73;;;3.20;;
15273;SDS011;7738;49.532;11.156;2023-08-31T05:13:17;5.45;;;3.92;;
15273;SDS011;7738;49.532;11.156;2023-08-31T05:15:47;6.53;;;3.72;;
15273;SDS011;7738;49.532;11.156;2023-08-31T05:18:17;4.28;;;2.72;;
15273;SDS011;7738;49.532;11.156;2023-08-31T05:20:47;9.15;;;4.50;;
15273;SDS011;7738;49.532;11.156;2023-08-31T05:23:17;7.13;;;3.40;;
15273;SDS011;7738;49.532;11.156;2023-08-31T05:25:50;8.88;;;4.13;;
15273;SDS011;7738;49.532;11.156;2023-08-31T05:28:23;5.15;;;4.05;;
15273;SDS011;7738;49.532;11.156;2023-08-31T05:30:55;6.85;;;3.90;;
15273;SDS011;7738;49.532;11.156;2023-08-31T05:33:26;5.20;;;3.92;;
15273;SDS011;7738;49.532;11.156;2023-08-31T05:36:01;6.10;;;4.20;;
15273;SDS011;7738;49.532;11.156;2023-08-31T05:38:32;6.25;;;4.18;;
15273;SDS011;7738;49.532;11.156;2023-08-31T05:41:06;6.53;;;4.15;;
15273;SDS011;7738;49.532;11.156;2023-08-31T05:43:36;6.32;;;4.72;;
15273;SDS011;7738;49.532;11.156;2023-08-31T05:46:07;7.68;;;4.85;;
15273;SDS011;7738;49.532;11.156;2023-08-31T05:48:38;5.43;;;3.67;;
15273;SDS011;7738;49.532;11.156;2023-08-31T05:51:08;6.93;;;4.18;;
15273;SDS011;7738;49.532;11.156;2023-08-31T05:53:38;6.25;;;4.80;;
15273;SDS011;7738;49.532;11.156;2023-08-31T05:56:11;5.50;;;4.18;;
15273;SDS011;7738;49.532;11.156;2023-08-31T05:58:41;8.88;;;4.85;;
15273;SDS011;7738;49.532;11.156;2023-08-31T06:01:11;7.63;;;5.28;;
15273;SDS011;7738;49.532;11.156;2023-08-31T06:03:41;6.55;;;4.35;;
15273;SDS011;7738;49.532;11.156;2023-08-31T06:06:11;7.18;;;4.45;;
15273;SDS011;7738;49.532;11.156;2023-08-31T06:08:41;8.15;;;4.47;;
15273;SDS011;7738;49.532;11.156;2023-08-31T06:11:14;8.43;;;5.35;;
15273;SDS011;7738;49.532;11.156;2023-08-31T06:13:44;7.57;;;5.75;;
15273;SDS011;7738;49.532;11.156;2023-08-31T06:16:14;10.35;;;5.10;;
15273;SDS011;7738;49.532;11.156;2023-08-31T06:18:44;8.50;;;5.93;;
15273;SDS011;7738;49.532;11.156;2023-08-31T06:21:15;8.10;;;5.80;;
15273;SDS011;7738;49.532;11.156;2023-08-31T06:23:45;9.20;;;6.57;;
15273;SDS011;7738;49.532;11.156;2023-08-31T06:26:17;8.38;;;6.72;;
15273;SDS011;7738;49.532;11.156;2023-08-31T06:28:47;8.35;;;6.05;;
15273;SDS011;7738;49.532;11.156;2023-08-31T06:31:17;7.90;;;6.25;;
15273;SDS011;7738;49.532;11.156;2023-08-31T06:33:48;10.63;;;7.60;;
15273;SDS011;7738;49.532;11.156;2023-08-31T06:36:18;10.30;;;6.82;;
15273;SDS011;7738;49.532;11.156;2023-08-31T06:38:48;11.18;;;6.95;;
15273;SDS011;7738;49.532;11.156;2023-08-31T06:41:20;11.95;;;6.85;;
15273;SDS011;7738;49.532;11.156;2023-08-31T06:43:51;12.20;;;7.75;;
15273;SDS011;7738;49.532;11.156;2023-08-31T06:46:21;11.00;;;6.82;;
15273;SDS011;7738;49.532;11.156;2023-08-31T06:48:51;10.48;;;6.40;;
15273;SDS011;7738;49.532;11.156;2023-08-31T06:51:21;9.13;;;6.13;;
15273;SDS011;7738;49.532;11.156;2023-08-31T06:53:52;12.57;;;6.25;;
15273;SDS011;7738;49.532;11.156;2023-08-31T06:56:24;11.55;;;6.15;;
15273;SDS011;7738;49.532;11.156;2023-08-31T06:58:55;9.57;;;6.70;;
15273;SDS011;7738;49.532;11.156;2023-08-31T07:01:25;8.68;;;6.05;;
15273;SDS011;7738;49.532;11.156;2023-08-31T07:03:56;13.13;;;6.18;;
15273;SDS011;7738;49.532;11.156;2023-08-31T07:06:26;8.18;;;6.25;;
15273;SDS011;7738;49.532;11.156;2023-08-31T07:08:56;7.55;;;5.60;;
15273;SDS011;7738;49.532;11.156;2023-08-31T07:11:29;8.85;;;6.78;;
15273;SDS011;7738;49.532;11.156;2023-08-31T07:13:59;9.57;;;6.80;;
15273;SDS011;7738;49.532;11.156;2023-08-31T07:16:29;12.95;;;6.60;;
15273;SDS011;7738;49.532;11.156;2023-08-31T07:19:00;7.22;;;6.15;;
15273;SDS011;7738;49.532;11.156;2023-08-31T07:21:30;7.75;;;6.32;;
15273;SDS011;7738;49.532;11.156;2023-08-31T07:24:00;8.40;;;6.03;;
15273;SDS011;7738;49.532;11.156;2023-08-31T07:26:33;6.85;;;5.15;;
15273;SDS011;7738;49.532;11.156;2023-08-31T07:29:04;6.65;;;5.30;;
15273;SDS011;7738;49.532;11.156;2023-08-31T07:31:34;5.43;;;4.88;;
15273;SDS011;7738;49.532;11.156;2023-08-31T07:34:04;8.23;;;5.03;;
15273;SDS011;7738;49.532;11.156;2023-08-31T07:36:35;8.38;;;4.40;;
15273;SDS011;7738;49.532;11.156;2023-08-31T07:39:06;6.38;;;4.50;;
15273;SDS011;7738;49.532;11.156;2023-08-31T07:41:39;7.55;;;4.22;;
15273;SDS011;7738;49.532;11.156;2023-08-31T07:44:09;7.15;;;4.45;;
15273;SDS011;7738;49.532;11.156;2023-08-31T07:46:39;6.75;;;5.18;;
15273;SDS011;7738;49.532;11.156;2023-08-31T07:49:09;5.53;;;4.32;;
15273;SDS011;7738;49.532;11.156;2023-08-31T07:51:39;7.47;;;3.63;;
15273;SDS011;7738;49.532;11.156;2023-08-31T07:54:09;8.25;;;4.03;;
15273;SDS011;7738;49.532;11.156;2023-08-31T07:56:42;5.88;;;3.55;;
15273;SDS011;7738;49.532;11.156;2023-08-31T07:59:12;9.23;;;3.33;;
15273;SDS011;7738;49.532;11.156;2023-08-31T08:01:42;8.77;;;3.67;;
15273;SDS011;7738;49.532;11.156;2023-08-31T08:04:13;7.00;;;3.40;;
15273;SDS011;7738;49.532;11.156;2023-08-31T08:06:46;7.43;;;3.45;;
15273;SDS011;7738;49.532;11.156;2023-08-31T08:09:18;5.20;;;3.28;;
15273;SDS011;7738;49.532;11.156;2023-08-31T08:11:51;7.68;;;2.88;;
15273;SDS011;7738;49.532;11.156;2023-08-31T08:14:21;3.67;;;2.45;;
15273;SDS011;7738;49.532;11.156;2023-08-31T08:16:51;3.78;;;2.45;;
15273;SDS011;7738;49.532;11.156;2023-08-31T08:19:21;8.15;;;2.88;;
15273;SDS011;7738;49.532;11.156;2023-08-31T08:21:52;4.07;;;2.70;;
15273;SDS011;7738;49.532;11.156;2023-08-31T08:24:22;3.95;;;1.77;;
15273;SDS011;7738;49.532;11.156;2023-08-31T08:26:55;4.10;;;2.25;;
15273;SDS011;7738;49.532;11.156;2023-08-31T08:29:25;3.30;;;2.05;;
15273;SDS011;7738;49.532;11.156;2023-08-31T08:31:55;5.93;;;1.88;;
15273;SDS011;7738;49.532;11.156;2023-08-31T08:34:25;5.28;;;2.35;;
15273;SDS011;7738;49.532;11.156;2023-08-31T08:36:56;3.58;;;1.50;;
15273;SDS011;7738;49.532;11.156;2023-08-31T08:39:26;2.28;;;1.42;;
15273;SDS011;7738;49.532;11.156;2023-08-31T08:41:58;3.75;;;1.67;;
15273;SDS011;7738;49.532;11.156;2023-08-31T08:44:30;5.73;;;1.43;;
15273;SDS011;7738;49.532;11.156;2023-08-31T08:47:02;4.33;;;1.40;;
15273;SDS011;7738;49.532;11.156;2023-08-31T08:49:33;5.53;;;1.67;;
15273;SDS011;7738;49.532;11.156;2023-08-31T08:52:03;4.43;;;1.77;;
15273;SDS011;7738;49.532;11.156;2023-08-31T08:54:35;3.72;;;1.73;;
15273;SDS011;7738;49.532;11.156;2023-08-31T08:57:08;3.53;;;0.80;;
15273;SDS011;7738;49.532;11.156;2023-08-31T08:59:38;2.45;;;1.15;;
15273;SDS011;7738;49.532;11.156;2023-08-31T09:02:10;2.47;;;1.13;;
15273;SDS011;7738;49.532;11.156;2023-08-31T09:04:40;3.85;;;0.93;;
15273;SDS011;7738;49.532;11.156;2023-08-31T09:07:10;5.47;;;1.10;;
15273;SDS011;7738;49.532;11.156;2023-08-31T09:12:35;5.40;;;1.08;;
15273;SDS011;7738;49.532;11.156;2023-08-31T09:15:07;2.55;;;0.80;;
15273;SDS011;7738;49.532;11.156;2023-08-31T09:17:38;4.70;;;0.85;;
15273;SDS011;7738;49.532;11.156;2023-08-31T09:20:09;1.58;;;0.60;;
15273;SDS011;7738;49.532;11.156;2023-08-31T09:22:42;4.43;;;0.70;;
15273;SDS011;7738;49.532;11.156;2023-08-31T09:25:13;3.45;;;1.27;;
15273;SDS011;7738;49.532;11.156;2023-08-31T09:27:46;1.92;;;0.77;;
15273;SDS011;7738;49.532;11.156;2023-08-31T09:30:17;3.33;;;0.95;;
15273;SDS011;7738;49.532;11.156;2023-08-31T09:32:51;2.53;;;0.95;;
15273;SDS011;7738;49.532;11.156;2023-08-31T09:37:57;2.58;;;0.80;;
15273;SDS011;7738;49.532;11.156;2023-08-31T09:40:29;2.20;;;0.55;;
15273;SDS011;7738;49.532;11.156;2023-08-31T09:43:01;4.05;;;0.93;;
15273;SDS011;7738;49.532;11.156;2023-08-31T09:45:32;1.90;;;0.60;;
15273;SDS011;7738;49.532;11.156;2023-08-31T09:48:06;5.00;;;1.00;;
15273;SDS011;7738;49.532;11.156;2023-08-31T09:50:37;1.80;;;0.60;;
15273;SDS011;7738;49.532;11.156;2023-08-31T09:53:08;2.00;;;0.70;;
15273;SDS011;7738;49.532;11.156;2023-08-31T09:55:40;2.75;;;1.23;;
15273;SDS011;7738;49.532;11.156;2023-08-31T09:58:16;3.28;;;0.50;;
15273;SDS011;7738;49.532;11.156;2023-08-31T10:00:48;2.40;;;0.73;;
15273;SDS011;7738;49.532;11.156;2023-08-31T10:03:20;1.58;;;0.80;;
15273;SDS011;7738;49.532;11.156;2023-08-31T10:05:50;1.38;;;0.50;;
15273;SDS011;7738;49.532;11.156;2023-08-31T10:08:20;4.65;;;0.77;;
15273;SDS011;7738;49.532;11.156;2023-08-31T10:10:50;1.23;;;0.55;;
15273;SDS011;7738;49.532;11.156;2023-08-31T10:13:24;3.45;;;1.17;;
15273;SDS011;7738;49.532;11.156;2023-08-31T10:15:58;1.60;;;0.40;;
15273;SDS011;7738;49.532;11.156;2023-08-31T10:18:30;1.88;;;0.88;;
15273;SDS011;7738;49.532;11.156;2023-08-31T10:21:01;5.80;;;0.90;;
15273;SDS011;7738;49.532;11.156;2023-08-31T10:23:32;3.83;;;0.70;;
15273;SDS011;7738;49.532;11.156;2023-08-31T10:26:05;3.67;;;1.00;;
15273;SDS011;7738;49.532;11.156;2023-08-31T10:28:41;1.52;;;0.60;;
15273;SDS011;7738;49.532;11.156;2023-08-31T10:31:15;1.05;;;0.50;;
15273;SDS011;7738;49.532;11.156;2023-08-31T10:33:47;2.60;;;0.90;;
15273;SDS011;7738;49.532;11.156;2023-08-31T10:36:35;2.08;;;1.00;;
15273;SDS011;7738;49.532;11.156;2023-08-31T10:39:10;2.15;;;0.70;;
15273;SDS011;7738;49.532;11.156;2023-08-31T10:41:51;1.80;;;1.10;;
15273;SDS011;7738;49.532;11.156;2023-08-31T10:44:25;2.55;;;0.93;;
15273;SDS011;7738;49.532;11.156;2023-08-31T10:46:58;2.28;;;0.90;;
15273;SDS011;7738;49.532;11.156;2023-08-31T10:49:29;2.80;;;0.85;;
15273;SDS011;7738;49.532;11.156;2023-08-31T10:52:14;4.13;;;0.73;;
15273;SDS011;7738;49.532;11.156;2023-08-31T10:55:05;3.53;;;1.25;;
15273;SDS011;7738;49.532;11.156;2023-08-31T10:57:36;2.75;;;1.23;;
15273;SDS011;7738;49.532;11.156;2023-08-31T11:00:10;2.88;;;1.00;;
15273;SDS011;7738;49.532;11.156;2023-08-31T11:02:44;3.83;;;1.15;;
15273;SDS011;7738;49.532;11.156;2023-08-31T11:05:14;3.58;;;1.25;;
15273;SDS011;7738;49.532;11.156;2023-08-31T11:07:49;1.77;;;1.15;;
15273;SDS011;7738;49.532;11.156;2023-08-31T11:10:20;3.70;;;1.40;;
15273;SDS011;7738;49.532;11.156;2023-08-31T11:12:55;2.63;;;1.02;;
15273;SDS011;7738;49.532;11.156;2023-08-31T11:15:28;4.28;;;1.42;;
15273;SDS011;7738;49.532;11.156;2023-08-31T11:17:58;2.35;;;1.17;;
15273;SDS011;7738;49.532;11.156;2023-08-31T11:20:29;2.28;;;0.95;;
15273;SDS011;7738;49.532;11.156;2023-08-31T11:23:00;2.17;;;0.90;;
15273;SDS011;7738;49.532;11.156;2023-08-31T11:25:31;4.78;;;1.38;;
15273;SDS011;7738;49.532;11.156;2023-08-31T11:28:02;4.50;;;0.95;;
15273;SDS011;7738;49.532;11.156;2023-08-31T11:30:37;2.87;;;1.03;;
15273;SDS011;7738;49.532;11.156;2023-08-31T11:33:10;3.95;;;0.95;;
15273;SDS011;7738;49.532;11.156;2023-08-31T11:35:43;4.30;;;1.25;;
15273;SDS011;7738;49.532;11.156;2023-08-31T11:38:14;3.03;;;1.52;;
15273;SDS011;7738;49.532;11.156;2023-08-31T11:40:44;6.47;;;1.38;;
15273;SDS011;7738;49.532;11.156;2023-08-31T11:43:18;3.58;;;1.70;;
15273;SDS011;7738;49.532;11.156;2023-08-31T11:45:51;2.10;;;0.80;;
15273;SDS011;7738;49.532;11.156;2023-08-31T11:48:24;3.55;;;1.30;;
15273;SDS011;7738;49.532;11.156;2023-08-31T11:50:55;2.58;;;0.80;;
15273;SDS011;7738;49.532;11.156;2023-08-31T11:53:25;2.78;;;0.70;;
15273;SDS011;7738;49.532;11.156;2023-08-31T11:55:56;2.45;;;1.15;;
15273;SDS011;7738;49.532;11.156;2023-08-31T11:58:27;3.78;;;1.50;;
15273;SDS011;7738;49.532;11.156;2023-08-31T12:01:00;2.97;;;0.77;;
15273;SDS011;7738;49.532;11.156;2023-08-31T12:03:39;3.00;;;0.98;;
15273;SDS011;7738;49.532;11.156;2023-08-31T12:06:16;3.55;;;1.00;;
15273;SDS011;7738;49.532;11.156;2023-08-31T12:08:47;2.00;;;1.00;;
15273;SDS011;7738;49.532;11.156;2023-08-31T12:11:18;4.57;;;0.80;;
15273;SDS011;7738;49.532;11.156;2023-08-31T12:13:50;3.72;;;1.15;;
15273;SDS011;7738;49.532;11.156;2023-08-31T12:16:22;4.05;;;0.85;;
15273;SDS011;7738;49.532;11.156;2023-08-31T12:18:53;2.03;;;0.63;;
15273;SDS011;7738;49.532;11.156;2023-08-31T12:21:28;2.88;;;0.95;;
15273;SDS011;7738;49.532;11.156;2023-08-31T12:23:58;4.28;;;1.05;;
15273;SDS011;7738;49.532;11.156;2023-08-31T12:26:30;1.92;;;0.90;;
15273;SDS011;7738;49.532;11.156;2023-08-31T12:29:00;4.25;;;0.77;;
15273;SDS011;7738;49.532;11.156;2023-08-31T12:31:34;3.58;;;0.75;;
15273;SDS011;7738;49.532;11.156;2023-08-31T12:34:04;3.25;;;0.75;;
15273;SDS011;7738;49.532;11.156;2023-08-31T12:36:35;1.42;;;0.60;;
15273;SDS011;7738;49.532;11.156;2023-08-31T12:39:07;2.28;;;1.25;;
15273;SDS011;7738;49.532;11.156;2023-08-31T12:41:38;5.47;;;0.60;;
15273;SDS011;7738;49.532;11.156;2023-08-31T12:44:09;1.08;;;0.60;;
15273;SDS011;7738;49.532;11.156;2023-08-31T12:46:41;1.65;;;0.65;;
15273;SDS011;7738;49.532;11.156;2023-08-31T12:49:11;2.42;;;1.02;;
15273;SDS011;7738;49.532;11.156;2023-08-31T12:51:42;3.10;;;0.60;;
15273;SDS011;7738;49.532;11.156;2023-08-31T12:54:12;2.28;;;0.52;;
15273;SDS011;7738;49.532;11.156;2023-08-31T12:56:42;4.07;;;1.02;;
15273;SDS011;7738;49.532;11.156;2023-08-31T12:59:12;1.33;;;0.47;;
15273;SDS011;7738;49.532;11.156;2023-08-31T13:01:45;6.57;;;0.90;;
15273;SDS011;7738;49.532;11.156;2023-08-31T13:04:15;2.63;;;0.70;;
15273;SDS011;7738;49.532;11.156;2023-08-31T13:06:45;2.25;;;0.60;;
15273;SDS011;7738;49.532;11.156;2023-08-31T13:09:16;4.40;;;0.73;;
15273;SDS011;7738;49.532;11.156;2023-08-31T13:11:46;2.22;;;0.80;;
15273;SDS011;7738;49.532;11.156;2023-08-31T13:14:16;2.10;;;0.30;;
15273;SDS011;7738;49.532;11.156;2023-08-31T13:16:49;1.77;;;0.80;;
15273;SDS011;7738;49.532;11.156;2023-08-31T13:21:50;1.95;;;0.43;;
15273;SDS011;7738;49.532;11.156;2023-08-31T13:24:20;2.10;;;0.60;;
15273;SDS011;7738;49.532;11.156;2023-08-31T13:26:51;1.02;;;0.52;;
15273;SDS011;7738;49.532;11.156;2023-08-31T13:29:21;2.45;;;0.40;;
15273;SDS011;7738;49.532;11.156;2023-08-31T13:31:54;2.90;;;0.30;;
15273;SDS011;7738;49.532;11.156;2023-08-31T13:34:24;1.95;;;0.40;;
15273;SDS011;7738;49.532;11.156;2023-08-31T13:36:54;2.72;;;0.50;;
15273;SDS011;7738;49.532;11.156;2023-08-31T13:39:25;2.33;;;0.68;;
15273;SDS011;7738;49.532;11.156;2023-08-31T13:41:56;2.78;;;0.57;;
15273;SDS011;7738;49.532;11.156;2023-08-31T13:44:28;3.60;;;0.45;;
15273;SDS011;7738;49.532;11.156;2023-08-31T13:47:01;2.70;;;0.75;;
15273;SDS011;7738;49.532;11.156;2023-08-31T13:49:33;2.42;;;0.50;;
15273;SDS011;7738;49.532;11.156;2023-08-31T13:52:03;4.22;;;0.88;;
15273;SDS011;7738;49.532;11.156;2023-08-31T13:54:36;3.30;;;0.50;;
15273;SDS011;7738;49.532;11.156;2023-08-31T13:57:06;2.67;;;0.45;;
15273;SDS011;7738;49.532;11.156;2023-08-31T13:59:36;2.72;;;0.65;;
15273;SDS011;7738;49.532;11.156;2023-08-31T14:02:08;3.42;;;0.95;;
15273;SDS011;7738;49.532;11.156;2023-08-31T14:04:38;4.00;;;0.60;;
15273;SDS011;7738;49.532;11.156;2023-08-31T14:07:09;1.38;;;0.63;;
15273;SDS011;7738;49.532;11.156;2023-08-31T14:09:40;3.50;;;0.43;;
15273;SDS011;7738;49.532;11.156;2023-08-31T14:12:10;1.45;;;0.45;;
15273;SDS011;7738;49.532;11.156;2023-08-31T14:14:40;3.42;;;0.60;;
15273;SDS011;7738;49.532;11.156;2023-08-31T14:17:15;1.85;;;0.60;;
15273;SDS011;7738;49.532;11.156;2023-08-31T14:19:45;1.83;;;0.30;;
15273;SDS011;7738;49.532;11.156;2023-08-31T14:22:15;3.50;;;0.60;;
15273;SDS011;7738;49.532;11.156;2023-08-31T14:24:46;1.50;;;0.30;;
15273;SDS011;7738;49.532;11.156;2023-08-31T14:27:16;1.30;;;0.32;;
15273;SDS011;7738;49.532;11.156;2023-08-31T14:29:46;1.95;;;0.82;;
15273;SDS011;7738;49.532;11.156;2023-08-31T14:32:19;2.75;;;0.60;;
15273;SDS011;7738;49.532;11.156;2023-08-31T14:34:49;1.03;;;0.30;;
15273;SDS011;7738;49.532;11.156;2023-08-31T14:37:19;1.50;;;0.35;;
15273;SDS011;7738;49.532;11.156;2023-08-31T14:39:49;3.63;;;0.60;;
15273;SDS011;7738;49.532;11.156;2023-08-31T14:42:19;2.67;;;0.43;;
15273;SDS011;7738;49.532;11.156;2023-08-31T14:44:49;1.73;;;0.35;;
15273;SDS011;7738;49.532;11.156;2023-08-31T14:47:22;4.78;;;0.60;;
15273;SDS011;7738;49.532;11.156;2023-08-31T14:49:54;2.17;;;0.60;;
15273;SDS011;7738;49.532;11.156;2023-08-31T14:52:24;3.63;;;0.47;;
15273;SDS011;7738;49.532;11.156;2023-08-31T14:54:55;1.95;;;0.45;;
15273;SDS011;7738;49.532;11.156;2023-08-31T14:57:26;1.65;;;0.50;;
15273;SDS011;7738;49.532;11.156;2023-08-31T14:59:56;1.83;;;0.43;;
15273;SDS011;7738;49.532;11.156;2023-08-31T15:02:34;2.75;;;0.40;;
15273;SDS011;7738;49.532;11.156;2023-08-31T15:05:05;1.45;;;0.45;;
15273;SDS011;7738;49.532;11.156;2023-08-31T15:07:36;7.10;;;0.73;;
15273;SDS011;7738;49.532;11.156;2023-08-31T15:10:06;5.45;;;0.70;;
15273;SDS011;7738;49.532;11.156;2023-08-31T15:12:37;1.70;;;0.28;;
15273;SDS011;7738;49.532;11.156;2023-08-31T15:15:08;1.75;;;0.40;;
15273;SDS011;7738;49.532;11.156;2023-08-31T15:17:41;2.50;;;0.50;;
15273;SDS011;7738;49.532;11.156;2023-08-31T15:20:11;3.42;;;0.50;;
15273;SDS011;7738;49.532;11.156;2023-08-31T15:22:42;3.00;;;0.70;;